ELLX Airport Information

Runway Information
Runway 06 Length 13123 ft width 197 ft
Elevation 1158 ft Threshold 0 ft Heading 60
Runway 24 Length 13123 ft Width 197 ft
Elevation 1214 ft Threshold 0 ft Heading 240
Airport Frequencies
Type APP Name APP Frequency 118.9 MHZ
Type ATIS Name ATIS Frequency 135.55 MHZ
Type TWR Name TWR Frequency 118.1 MHZ
Airport Navaids
Type NDB Name Luxembourg Frequency 369 KHZ
Type VOR-DME Name Luxembourg Frequency 112250 KHZ
Type NDB Name Luxembourg Frequency 346 KHZ
Airport Weather Information & NOTAM
ADDS - METARS form results

(2007 UTC 20 March 2019)
Data provider http://aviationweather.gov/metar/data/
 
METAR text: ELLX 201950Z 03004KT CAVOK 07/00 Q1033 NOSIG
Conditions at: ELLX (LUXEMBOURG (AUT), LU) observed 1950 UTC 20 March 2019
Temperature: 7.0°C (45°F)
Dewpoint: 0.0°C (32°F) [RH = 61%]
Pressure (altimeter): 30.50 inches Hg (1033.0 mb)
Winds: from the NNE (30 degrees) at 5 MPH (4 knots; 2.1 m/s)
Visibility: 6 or more miles (10+ km)
Ceiling: ceiling and visibility are OK
Clouds: unknown
Weather: no significant weather observed at this time

METAR text: ELLX 201920Z 01005KT 350V060 CAVOK 07/00 Q1033 NOSIG
Conditions at: ELLX (LUXEMBOURG (AUT), LU) observed 1920 UTC 20 March 2019
Temperature: 7.0°C (45°F)
Dewpoint: 0.0°C (32°F) [RH = 61%]
Pressure (altimeter): 30.50 inches Hg (1033.0 mb)
Winds: from the N (10 degrees) at 6 MPH (5 knots; 2.6 m/s)
Visibility: 6 or more miles (10+ km)
Ceiling: ceiling and visibility are OK
Clouds: unknown
Weather: no significant weather observed at this time

Forecast for: AMD
Text: TAF AMD ELLX 201700Z 2018/2124 05006KT CAVOK
Forecast period: 1800 UTC 20 March 2019 to 0000 UTC 22 March 2019
Forecast type: FROM: standard forecast or significant change
Winds: from the NE (50 degrees) at 7 MPH (6 knots; 3.1 m/s)
Visibility: 6 or more miles 10+ km)
Ceiling: unknown
Clouds: missing
Weather: NSW  (no significant weather)
Text: TEMPO 2018/2106 VRB02KT
Forecast period: 1800 UTC 20 March 2019 to 0600 UTC 21 March 2019
Forecast type: TEMPORARY: The following changes expected for less than half the time period
Winds: variable direction winds at 2 MPH (2 knots; 1.0 m/s)
Visibility: missing
Ceiling: unknown
Clouds: missing
Weather: no significant weather forecast for this period